aviador You're here:

KTYS Decoded Metar

KNOXVILLE in TN, USA
Report Time2017-06-24 21:53:00
UTC Time2017-06-24 22:21:02
Flight Rules vfr VFR
Wind280° at 09 kt
W.Decomp.*RWY 23: 5.4 kt HW 7.2 kt RCW
W.Rank280° ranks 17
Current wind is above 280° avg. (7.2)
Visibility9999 m
Phenomena:N/A
Clouds:Few 035 Hf
Broken 045 Hf
Broken 250 Hf
Expected CloudBase > 5,200 ft AGL from Temp-Dew spread
Ceiling4,500 ft
Temp29°C (ISA +16)
Dew Point16°C (45% RH)
Heat Index29.1°C
AAT27.7°C
QNH1015 hPa
Density Alt2,999 ft
Elevation991 ft
Report Wrong Elevation
Raw Report
METAR KTYS 242153Z 28009KT 10SM FEW035 BKN045 BKN250 29/16 A2998 RMK
AO2 SLP139 T02940156=

Extra information for KTYS:More info

Metar Taf Metar & Taf Last 4 Metars F.Rules Stats Wind Profile Meteogram Temp Stats Airport Information Weather charts Add Link Nearby VenuesMetar ALERT Operation Metar Decoded Social comments

AIRNAV info for KTYS